createdAt,value
2018-09-26T00:00:11.316Z,6.00
2018-09-26T00:02:43.800Z,4.42
2018-09-26T00:05:11.892Z,4.90
2018-09-26T00:07:39.998Z,4.97
2018-09-26T00:10:08.188Z,6.47
2018-09-26T00:12:36.354Z,3.95
2018-09-26T00:15:04.463Z,3.83
2018-09-26T00:17:32.587Z,3.52
2018-09-26T00:20:00.761Z,6.60
2018-09-26T00:22:28.874Z,6.15
2018-09-26T00:24:57.192Z,1.98
2018-09-26T00:27:25.291Z,2.30
2018-09-26T00:29:53.438Z,3.65
2018-09-26T00:32:21.532Z,3.75
2018-09-26T00:34:49.649Z,1.75
2018-09-26T00:37:17.767Z,3.40
2018-09-26T00:39:45.865Z,3.05
2018-09-26T00:42:14.024Z,4.55
2018-09-26T00:44:42.072Z,2.53
2018-09-26T00:47:10.225Z,5.25
2018-09-26T00:49:38.315Z,8.95
2018-09-26T00:52:06.431Z,3.25
2018-09-26T00:54:34.523Z,4.47
2018-09-26T00:57:02.644Z,3.08
2018-09-26T00:59:30.750Z,4.33
2018-09-26T01:01:58.918Z,4.03
2018-09-26T01:04:27.000Z,7.92
2018-09-26T01:06:55.109Z,2.98
2018-09-26T01:09:23.204Z,1.92
2018-09-26T01:11:51.338Z,4.28
2018-09-26T01:14:19.433Z,4.17
2018-09-26T01:16:47.542Z,3.10
2018-09-26T01:19:15.659Z,5.78
2018-09-26T01:21:43.762Z,6.80
2018-09-26T01:24:11.861Z,2.67
2018-09-26T01:26:39.960Z,5.08
2018-09-26T01:29:08.051Z,5.95
2018-09-26T01:31:36.159Z,4.85
2018-09-26T01:34:04.280Z,5.30
2018-09-26T01:36:32.388Z,5.87
2018-09-26T01:39:00.477Z,3.25
2018-09-26T01:41:28.645Z,4.53
2018-09-26T01:43:56.814Z,5.40
2018-09-26T01:46:24.918Z,5.00
2018-09-26T01:48:53.036Z,10.80
2018-09-26T01:51:21.129Z,6.47
2018-09-26T01:53:49.231Z,3.87
2018-09-26T01:56:17.311Z,4.95
2018-09-26T01:58:45.434Z,5.28
2018-09-26T02:01:13.596Z,7.00
2018-09-26T02:03:41.683Z,6.22
2018-09-26T02:06:09.777Z,6.45
2018-09-26T02:08:37.894Z,3.67
2018-09-26T02:11:05.975Z,3.55
2018-09-26T02:13:34.173Z,3.75
2018-09-26T02:16:02.290Z,6.35
2018-09-26T02:18:30.399Z,4.42
2018-09-26T02:20:58.477Z,2.10
2018-09-26T02:23:26.552Z,4.83
2018-09-26T02:25:54.653Z,5.00
2018-09-26T02:28:22.835Z,5.72
2018-09-26T02:30:50.911Z,3.87
2018-09-26T02:33:19.022Z,7.37
2018-09-26T02:35:47.138Z,6.80
2018-09-26T02:38:15.236Z,3.80
2018-09-26T02:40:43.312Z,6.45
2018-09-26T02:43:11.392Z,3.65
2018-09-26T02:45:39.479Z,2.60
2018-09-26T02:48:07.572Z,3.65
2018-09-26T02:50:35.656Z,7.95
2018-09-26T02:53:03.757Z,4.45
2018-09-26T02:55:31.874Z,3.00
2018-09-26T02:57:59.931Z,3.08
2018-09-26T03:00:28.035Z,3.60
2018-09-26T03:02:56.137Z,2.22
2018-09-26T03:05:24.243Z,3.47
2018-09-26T03:07:52.291Z,2.25
2018-09-26T03:10:20.403Z,6.37
2018-09-26T03:12:48.505Z,6.45
2018-09-26T03:15:16.610Z,5.62
2018-09-26T03:17:44.780Z,4.78
2018-09-26T03:20:12.824Z,6.78
2018-09-26T03:22:40.949Z,4.00
2018-09-26T03:25:09.186Z,3.72
2018-09-26T03:27:37.289Z,2.83
2018-09-26T03:30:05.406Z,7.03
2018-09-26T03:32:33.523Z,3.80
2018-09-26T03:35:01.662Z,6.05
2018-09-26T03:37:29.756Z,5.22
2018-09-26T03:39:57.855Z,5.85
2018-09-26T03:42:25.967Z,3.35
2018-09-26T03:44:54.075Z,1.80
2018-09-26T03:47:22.165Z,2.55
2018-09-26T03:49:50.277Z,2.70
2018-09-26T03:52:18.374Z,6.25
2018-09-26T03:54:46.485Z,3.95
2018-09-26T03:57:14.594Z,2.12
2018-09-26T03:59:42.676Z,1.92
2018-09-26T04:02:10.784Z,4.78
2018-09-26T04:04:38.884Z,4.20
2018-09-26T04:07:06.998Z,5.40
2018-09-26T04:09:35.102Z,4.35
2018-09-26T04:12:03.202Z,2.45
2018-09-26T04:14:31.296Z,3.92
2018-09-26T04:16:59.384Z,3.22
2018-09-26T04:19:27.466Z,5.40
2018-09-26T04:21:55.552Z,3.52
2018-09-26T04:24:23.656Z,3.50
2018-09-26T04:26:51.827Z,4.67
2018-09-26T04:29:19.816Z,2.80
2018-09-26T04:31:47.882Z,3.35
2018-09-26T04:34:15.990Z,3.75
2018-09-26T04:36:44.113Z,1.85
2018-09-26T04:39:13.065Z,7.20
2018-09-26T04:41:41.375Z,2.77
2018-09-26T04:44:09.623Z,4.37
2018-09-26T04:46:38.034Z,3.67
2018-09-26T04:49:06.147Z,3.17
2018-09-26T04:51:34.462Z,5.33
2018-09-26T04:54:02.554Z,2.95
2018-09-26T04:56:30.623Z,5.00
2018-09-26T04:58:58.721Z,4.62
2018-09-26T05:01:26.834Z,6.45
2018-09-26T05:03:54.926Z,5.10
2018-09-26T05:06:23.881Z,7.05
2018-09-26T05:08:51.954Z,5.83
2018-09-26T05:11:20.044Z,5.67
2018-09-26T05:13:48.138Z,2.72
2018-09-26T05:16:16.229Z,3.77
2018-09-26T05:18:44.309Z,2.30
2018-09-26T05:21:12.396Z,1.87
2018-09-26T05:23:40.529Z,1.77
2018-09-26T05:26:08.607Z,4.55
2018-09-26T05:28:36.980Z,2.83
2018-09-26T05:31:05.067Z,3.67
2018-09-26T05:33:33.161Z,2.65
2018-09-26T05:36:01.264Z,2.85
2018-09-26T05:38:29.348Z,2.17
2018-09-26T05:40:57.441Z,2.12
2018-09-26T05:43:25.524Z,1.55
2018-09-26T05:45:53.691Z,5.10
2018-09-26T05:48:21.763Z,1.85
2018-09-26T05:50:49.856Z,3.47
2018-09-26T05:53:17.955Z,1.98
2018-09-26T05:55:46.021Z,3.27
2018-09-26T05:58:15.024Z,2.65
2018-09-26T06:00:43.120Z,4.03
2018-09-26T06:03:11.200Z,4.72
2018-09-26T06:05:39.288Z,4.28
2018-09-26T06:08:07.402Z,6.00
2018-09-26T06:10:35.519Z,5.05
2018-09-26T06:13:03.698Z,1.40
2018-09-26T06:15:31.715Z,6.47
2018-09-26T06:17:59.813Z,2.47
2018-09-26T06:20:27.930Z,4.53
2018-09-26T06:22:56.032Z,2.55
2018-09-26T06:25:24.155Z,2.15
2018-09-26T06:27:52.244Z,3.75
2018-09-26T06:30:27.212Z,2.65
2018-09-26T06:32:55.323Z,2.25
2018-09-26T06:35:23.425Z,3.98
2018-09-26T06:37:51.706Z,3.02
2018-09-26T06:40:19.824Z,3.98
2018-09-26T06:42:47.917Z,3.22
2018-09-26T06:45:16.061Z,3.87
2018-09-26T06:47:44.171Z,3.55
2018-09-26T06:50:12.282Z,5.30
2018-09-26T06:52:40.371Z,3.33
2018-09-26T06:55:08.485Z,5.20
2018-09-26T06:57:36.592Z,4.15
2018-09-26T07:00:05.251Z,3.70
2018-09-26T07:02:33.438Z,2.45
2018-09-26T07:05:01.542Z,5.43
2018-09-26T07:07:29.683Z,1.42
2018-09-26T07:09:57.776Z,2.17
2018-09-26T07:12:25.884Z,2.30
2018-09-26T07:14:53.998Z,2.30
2018-09-26T07:17:22.260Z,4.67
2018-09-26T07:19:50.593Z,2.83
2018-09-26T07:22:18.726Z,2.22
2018-09-26T07:24:47.081Z,2.27
2018-09-26T07:27:15.372Z,4.53
2018-09-26T07:29:43.712Z,5.57
2018-09-26T07:32:11.951Z,2.50
2018-09-26T07:34:40.347Z,3.30
2018-09-26T07:37:09.039Z,4.83
2018-09-26T07:39:37.925Z,1.80
2018-09-26T07:42:06.293Z,3.50
2018-09-26T07:44:34.592Z,4.23
2018-09-26T07:47:02.712Z,1.87
2018-09-26T07:49:30.796Z,1.40
2018-09-26T07:51:58.880Z,3.33
2018-09-26T07:54:26.969Z,2.20
2018-09-26T07:56:55.065Z,4.93
2018-09-26T07:59:23.176Z,5.47
2018-09-26T08:01:51.276Z,2.40
2018-09-26T08:04:19.356Z,3.83
2018-09-26T08:06:47.460Z,3.37
2018-09-26T08:09:15.548Z,3.17
2018-09-26T08:11:43.669Z,3.70
2018-09-26T08:14:11.763Z,8.50
2018-09-26T08:16:39.867Z,3.97
2018-09-26T08:19:08.243Z,3.30
2018-09-26T08:21:36.357Z,5.30
2018-09-26T08:24:04.601Z,5.10
2018-09-26T08:26:32.586Z,4.40
2018-09-26T08:29:00.692Z,3.00
2018-09-26T08:31:28.795Z,4.83
2018-09-26T08:33:56.911Z,4.87
2018-09-26T08:36:25.021Z,3.80
2018-09-26T08:38:53.119Z,3.53
2018-09-26T08:41:21.224Z,3.03
2018-09-26T08:43:49.363Z,4.10
2018-09-26T08:46:17.424Z,5.13
2018-09-26T08:48:45.519Z,3.47
2018-09-26T08:51:13.621Z,3.20
2018-09-26T08:53:41.800Z,3.70
2018-09-26T08:56:16.540Z,2.97
2018-09-26T08:58:44.635Z,4.70
2018-09-26T09:01:18.155Z,3.50
2018-09-26T09:03:46.268Z,5.87
2018-09-26T09:06:14.413Z,5.43
2018-09-26T09:08:42.495Z,4.87
2018-09-26T09:11:10.595Z,5.90
2018-09-26T09:13:38.717Z,8.23
2018-09-26T09:16:07.167Z,2.40
2018-09-26T09:18:35.304Z,3.13
2018-09-26T09:21:03.419Z,3.57
2018-09-26T09:23:31.524Z,3.13
2018-09-26T09:25:59.657Z,6.40
2018-09-26T09:28:27.769Z,2.20
2018-09-26T09:30:55.873Z,3.80
2018-09-26T09:33:23.967Z,2.50
2018-09-26T09:35:52.097Z,4.53
2018-09-26T09:38:20.304Z,3.07
2018-09-26T09:40:48.313Z,3.60
2018-09-26T09:43:16.475Z,3.90
2018-09-26T09:45:44.556Z,2.90
2018-09-26T09:48:12.742Z,4.63
2018-09-26T09:50:40.838Z,4.20
2018-09-26T09:53:08.966Z,4.40
2018-09-26T09:55:37.059Z,8.10
2018-09-26T09:58:05.189Z,5.80
2018-09-26T10:01:37.483Z,5.20
2018-09-26T10:04:05.594Z,5.17
2018-09-26T10:06:33.690Z,3.70
2018-09-26T10:09:01.802Z,4.43
2018-09-26T10:11:29.976Z,3.70
2018-09-26T10:13:58.069Z,2.70
2018-09-26T10:16:26.168Z,3.93
2018-09-26T10:18:54.273Z,4.30
2018-09-26T10:21:22.343Z,4.97
2018-09-26T10:23:50.476Z,2.50
2018-09-26T10:26:18.609Z,4.53
2018-09-26T10:28:46.660Z,4.50
2018-09-26T10:31:14.753Z,3.17
2018-09-26T10:33:42.868Z,4.30
2018-09-26T10:36:10.961Z,3.60
2018-09-26T10:38:39.052Z,3.07
2018-09-26T10:41:07.267Z,2.50
2018-09-26T10:43:35.817Z,1.80
2018-09-26T10:46:03.878Z,3.43
2018-09-26T10:48:31.969Z,3.30
2018-09-26T10:51:00.204Z,3.20
2018-09-26T10:53:28.300Z,4.10
2018-09-26T10:55:56.372Z,4.53
2018-09-26T10:58:24.481Z,4.73
2018-09-26T11:00:52.554Z,2.80
2018-09-26T11:03:20.642Z,3.33
2018-09-26T11:05:48.711Z,4.07
2018-09-26T11:08:16.823Z,2.10
2018-09-26T11:10:44.927Z,3.13
2018-09-26T11:13:13.046Z,5.97
2018-09-26T11:15:41.154Z,3.03
2018-09-26T11:18:09.254Z,1.87
2018-09-26T11:20:37.343Z,3.80
2018-09-26T11:23:05.453Z,3.23
2018-09-26T11:25:33.538Z,5.80
2018-09-26T11:28:01.662Z,4.60
2018-09-26T11:30:29.917Z,4.70
2018-09-26T11:32:58.000Z,2.33
2018-09-26T11:35:26.098Z,5.93
2018-09-26T11:37:54.198Z,5.90
2018-09-26T11:40:22.477Z,3.57
2018-09-26T11:42:50.497Z,4.00
2018-09-26T11:45:18.600Z,1.73
2018-09-26T11:47:46.672Z,3.73
2018-09-26T11:50:14.932Z,2.67
2018-09-26T11:52:42.939Z,1.60
2018-09-26T11:55:11.050Z,3.20
2018-09-26T11:57:39.122Z,3.07
2018-09-26T12:00:07.236Z,5.47
2018-09-26T12:02:35.329Z,2.30
2018-09-26T12:05:03.397Z,2.93
2018-09-26T12:10:06.050Z,3.20
2018-09-26T12:12:34.111Z,3.90
2018-09-26T12:15:02.217Z,5.50
2018-09-26T12:17:30.311Z,4.33
2018-09-26T12:19:58.411Z,5.00
2018-09-26T12:22:26.555Z,5.37
2018-09-26T12:24:54.648Z,2.90
2018-09-26T12:27:22.741Z,3.40
2018-09-26T12:29:50.891Z,4.50
2018-09-26T12:32:19.038Z,3.80
2018-09-26T12:34:47.188Z,6.60
2018-09-26T12:37:15.248Z,3.47
2018-09-26T12:39:43.344Z,3.33
2018-09-26T12:42:11.489Z,4.07
2018-09-26T12:44:39.555Z,4.57
2018-09-26T12:47:07.728Z,7.53
2018-09-26T12:49:35.781Z,2.60
2018-09-26T12:52:03.895Z,3.50
2018-09-26T12:54:32.047Z,2.80
2018-09-26T12:57:00.123Z,3.33
2018-09-26T12:59:28.242Z,3.80
2018-09-26T13:01:56.333Z,3.10
2018-09-26T13:04:24.527Z,2.80
2018-09-26T13:06:52.563Z,1.97
2018-09-26T13:09:20.680Z,2.97
2018-09-26T13:11:48.781Z,3.07
2018-09-26T13:14:16.951Z,2.73
2018-09-26T13:16:45.006Z,1.83
2018-09-26T13:19:13.164Z,2.63
2018-09-26T13:21:41.240Z,2.33
2018-09-26T13:24:09.393Z,2.37
2018-09-26T13:26:37.430Z,3.33
2018-09-26T13:29:05.897Z,2.27
2018-09-26T13:31:34.017Z,2.10
2018-09-26T13:34:02.208Z,2.80
2018-09-26T13:36:30.296Z,1.90
2018-09-26T13:38:58.445Z,2.50
2018-09-26T13:41:26.501Z,7.10
2018-09-26T13:43:54.673Z,4.17
2018-09-26T13:46:23.012Z,2.63
2018-09-26T13:48:50.960Z,2.10
2018-09-26T13:51:19.069Z,1.43
2018-09-26T13:53:47.148Z,1.87
2018-09-26T13:56:15.273Z,3.20
2018-09-26T13:58:43.331Z,2.53
2018-09-26T14:01:11.420Z,3.27
2018-09-26T14:03:39.519Z,1.97
2018-09-26T14:06:07.596Z,3.30
2018-09-26T14:08:35.764Z,2.77
2018-09-26T14:11:03.792Z,3.23
2018-09-26T14:13:31.881Z,4.07
2018-09-26T14:15:59.974Z,3.10
2018-09-26T14:18:28.090Z,1.40
2018-09-26T14:21:13.097Z,3.70
2018-09-26T14:23:41.396Z,5.27
2018-09-26T14:26:09.481Z,4.10
2018-09-26T14:28:37.612Z,2.90
2018-09-26T14:31:06.001Z,4.50
2018-09-26T14:33:34.213Z,5.00
2018-09-26T14:36:02.355Z,3.00
2018-09-26T14:38:30.541Z,3.17
2018-09-26T14:40:58.770Z,3.53
2018-09-26T14:43:26.965Z,4.03
2018-09-26T14:45:55.193Z,3.27
2018-09-26T14:48:23.457Z,1.97
2018-09-26T14:50:51.634Z,4.63
2018-09-26T14:53:19.828Z,3.97
2018-09-26T14:55:48.008Z,1.60
2018-09-26T14:58:16.273Z,4.30
2018-09-26T15:00:44.371Z,2.70
2018-09-26T15:03:12.602Z,2.90
2018-09-26T15:05:40.764Z,3.63
2018-09-26T15:08:09.083Z,3.10
2018-09-26T15:10:37.278Z,2.20
2018-09-26T15:13:05.776Z,2.63
2018-09-26T15:15:33.961Z,2.33
2018-09-26T15:18:02.145Z,1.43
2018-09-26T15:20:30.422Z,6.10
2018-09-26T15:22:58.521Z,6.40
2018-09-26T15:25:26.696Z,3.20
2018-09-26T15:27:54.919Z,2.93
2018-09-26T15:30:23.221Z,3.30
2018-09-26T15:32:51.316Z,2.27
2018-09-26T15:35:19.516Z,2.90
2018-09-26T15:37:47.664Z,2.97
2018-09-26T15:40:15.971Z,3.57
2018-09-26T15:42:44.029Z,3.27
2018-09-26T15:45:12.372Z,4.87
2018-09-26T15:47:40.567Z,3.60
2018-09-26T15:50:08.992Z,3.83
2018-09-26T15:52:37.132Z,4.90
2018-09-26T15:55:05.393Z,4.87
2018-09-26T16:00:08.266Z,3.57
2018-09-26T16:02:36.393Z,2.33
2018-09-26T16:05:04.989Z,5.07
2018-09-26T16:07:33.116Z,4.40
2018-09-26T16:10:01.232Z,2.57
2018-09-26T16:12:29.387Z,2.13
2018-09-26T16:14:57.484Z,4.43
2018-09-26T16:17:25.568Z,2.43
2018-09-26T16:19:53.734Z,4.20
2018-09-26T16:22:21.880Z,3.40
2018-09-26T16:24:49.925Z,2.70
2018-09-26T16:27:18.637Z,5.30
2018-09-26T16:29:46.738Z,2.27
2018-09-26T16:32:14.864Z,5.97
2018-09-26T16:34:42.939Z,6.10
2018-09-26T16:37:11.058Z,3.90
2018-09-26T16:39:39.173Z,4.30
2018-09-26T16:42:07.281Z,2.90
2018-09-26T16:44:35.357Z,8.33
2018-09-26T16:47:03.493Z,4.37
2018-09-26T16:49:31.612Z,6.90
2018-09-26T16:51:59.695Z,4.73
2018-09-26T16:54:27.800Z,4.70
2018-09-26T16:56:55.894Z,4.90
2018-09-26T16:59:24.002Z,5.10
2018-09-26T17:01:52.098Z,3.83
2018-09-26T17:04:20.262Z,8.10
2018-09-26T17:06:48.360Z,11.87
2018-09-26T17:09:16.452Z,3.93
2018-09-26T17:11:44.592Z,5.57
2018-09-26T17:14:12.891Z,6.80
2018-09-26T17:16:41.420Z,5.27
2018-09-26T17:19:09.596Z,5.07
2018-09-26T17:21:37.705Z,9.03
2018-09-26T17:24:05.859Z,10.30
2018-09-26T17:26:33.930Z,8.73
2018-09-26T17:29:02.021Z,5.07
2018-09-26T17:31:30.157Z,5.87
2018-09-26T17:33:58.252Z,3.87
2018-09-26T17:36:26.462Z,6.30
2018-09-26T17:38:54.560Z,9.77
2018-09-26T17:41:22.684Z,11.77
2018-09-26T17:43:50.826Z,8.87
2018-09-26T17:46:18.947Z,8.30
2018-09-26T17:48:47.099Z,9.20
2018-09-26T17:51:15.195Z,10.63
2018-09-26T17:53:43.448Z,8.23
2018-09-26T17:56:11.593Z,8.10
2018-09-26T17:58:39.692Z,6.20
2018-09-26T18:01:07.838Z,9.40
2018-09-26T18:03:35.971Z,7.47
2018-09-26T18:06:04.240Z,10.10
2018-09-26T18:08:32.449Z,8.23
2018-09-26T18:11:00.514Z,3.50
2018-09-26T18:13:28.738Z,7.90
2018-09-26T18:15:56.877Z,5.10
2018-09-26T18:18:24.992Z,18.53
2018-09-26T18:20:53.180Z,10.80
2018-09-26T18:23:21.367Z,10.80
2018-09-26T18:25:49.789Z,14.23
2018-09-26T18:28:18.649Z,19.47
2018-09-26T18:30:46.740Z,15.53
2018-09-26T18:33:15.062Z,13.37
2018-09-26T18:35:43.060Z,15.30
2018-09-26T18:38:11.239Z,10.13
2018-09-26T18:40:39.376Z,11.90
2018-09-26T18:43:08.053Z,10.33
2018-09-26T18:45:36.879Z,14.10
2018-09-26T18:48:04.992Z,12.43
2018-09-26T18:50:33.107Z,14.60
2018-09-26T18:53:01.301Z,12.10
2018-09-26T18:55:29.437Z,9.30
2018-09-26T18:57:57.568Z,9.67
2018-09-26T19:00:26.058Z,11.00
2018-09-26T19:02:54.210Z,8.63
2018-09-26T19:05:22.370Z,11.90
2018-09-26T19:07:51.002Z,9.80
2018-09-26T19:10:19.687Z,8.00
2018-09-26T19:12:48.244Z,8.50
2018-09-26T19:15:16.382Z,14.03
2018-09-26T19:17:44.673Z,9.97
2018-09-26T19:20:13.965Z,15.13
2018-09-26T19:22:42.326Z,10.03
2018-09-26T19:25:10.925Z,9.87
2018-09-26T19:27:39.165Z,11.47
2018-09-26T19:30:07.353Z,12.20
2018-09-26T19:32:35.588Z,12.47
2018-09-26T19:35:04.054Z,6.30
2018-09-26T19:37:32.335Z,8.70
2018-09-26T19:40:00.467Z,11.53
2018-09-26T19:42:28.597Z,12.90
2018-09-26T19:44:56.828Z,7.80
2018-09-26T19:47:24.907Z,11.43
2018-09-26T19:49:53.012Z,10.03
2018-09-26T19:52:21.152Z,11.23
2018-09-26T19:54:49.261Z,9.33
2018-09-26T19:57:17.356Z,8.73
2018-09-26T19:59:45.501Z,7.90
2018-09-26T20:02:13.615Z,6.87
2018-09-26T20:04:41.781Z,8.73
2018-09-26T20:07:10.019Z,8.23
2018-09-26T20:09:38.130Z,6.33
2018-09-26T20:12:06.400Z,6.60
2018-09-26T20:14:34.517Z,5.60
2018-09-26T20:17:02.628Z,6.77
2018-09-26T20:19:30.746Z,7.93
2018-09-26T20:21:58.974Z,6.80
2018-09-26T20:24:27.289Z,9.37
2018-09-26T20:26:55.521Z,7.37
2018-09-26T20:29:23.848Z,7.90
2018-09-26T20:31:51.940Z,6.00
2018-09-26T20:34:20.263Z,6.70
2018-09-26T20:36:48.354Z,7.53
2018-09-26T20:39:16.474Z,7.70
2018-09-26T20:44:19.239Z,6.60
2018-09-26T20:46:47.328Z,8.93
2018-09-26T20:49:15.451Z,6.30
2018-09-26T20:51:43.588Z,8.50
2018-09-26T20:54:11.793Z,8.20
2018-09-26T20:56:39.896Z,6.77
2018-09-26T20:59:08.207Z,10.27
2018-09-26T21:01:36.318Z,7.83
2018-09-26T21:04:04.430Z,6.97
2018-09-26T21:06:32.837Z,7.50
2018-09-26T21:09:00.931Z,8.87
2018-09-26T21:11:29.036Z,12.83
2018-09-26T21:13:57.131Z,6.53
2018-09-26T21:16:25.232Z,5.50
2018-09-26T21:18:53.528Z,7.77
2018-09-26T21:21:21.813Z,9.00
2018-09-26T21:23:50.105Z,6.53
2018-09-26T21:26:18.466Z,6.03
2018-09-26T21:28:46.763Z,7.33
2018-09-26T21:31:15.009Z,6.37
2018-09-26T21:33:49.659Z,7.17
2018-09-26T21:36:17.798Z,5.37
2018-09-26T21:38:45.913Z,7.73
2018-09-26T21:41:14.020Z,5.20
2018-09-26T21:43:42.153Z,5.87
2018-09-26T21:46:10.599Z,6.67
2018-09-26T21:48:38.914Z,6.07
2018-09-26T21:51:07.149Z,5.80
2018-09-26T21:53:35.285Z,5.37
2018-09-26T21:56:03.448Z,4.70
2018-09-26T21:58:31.599Z,6.60
2018-09-26T22:01:02.696Z,6.60
2018-09-26T22:03:31.065Z,5.53
2018-09-26T22:05:59.274Z,10.17
2018-09-26T22:08:27.430Z,5.10
2018-09-26T22:10:55.545Z,5.80
2018-09-26T22:13:23.702Z,5.80
2018-09-26T22:15:52.106Z,3.80
2018-09-26T22:18:20.462Z,4.20
2018-09-26T22:20:48.541Z,4.10
2018-09-26T22:23:16.666Z,5.10
2018-09-26T22:25:44.729Z,3.97
2018-09-26T22:28:12.803Z,3.60
2018-09-26T22:30:40.897Z,5.40
2018-09-26T22:33:08.982Z,5.07
2018-09-26T22:35:37.088Z,5.30
2018-09-26T22:38:05.216Z,3.50
2018-09-26T22:40:33.275Z,4.27
2018-09-26T22:43:01.376Z,4.97
2018-09-26T22:45:29.468Z,4.20
2018-09-26T22:47:57.547Z,5.07
2018-09-26T22:50:25.641Z,5.30
2018-09-26T22:52:53.724Z,3.27
2018-09-26T22:55:21.828Z,4.27
2018-09-26T22:57:49.957Z,3.70
2018-09-26T23:00:18.188Z,3.97
2018-09-26T23:02:46.372Z,4.10
2018-09-26T23:05:14.481Z,4.07
2018-09-26T23:07:42.578Z,5.60
2018-09-26T23:10:10.694Z,5.73
2018-09-26T23:12:38.809Z,5.73
2018-09-26T23:15:06.932Z,4.33
2018-09-26T23:17:35.026Z,5.50
2018-09-26T23:20:03.140Z,4.33
2018-09-26T23:22:31.249Z,4.17
2018-09-26T23:24:59.365Z,6.60
2018-09-26T23:27:27.469Z,5.73
2018-09-26T23:29:55.568Z,4.63
2018-09-26T23:32:23.665Z,4.03
2018-09-26T23:34:51.782Z,4.97
2018-09-26T23:37:19.868Z,4.40
2018-09-26T23:39:47.982Z,6.50
2018-09-26T23:42:16.084Z,5.93
2018-09-26T23:44:44.196Z,8.10
2018-09-26T23:47:12.491Z,4.90
2018-09-26T23:49:40.591Z,3.87
2018-09-26T23:52:08.724Z,7.30
2018-09-26T23:54:36.818Z,3.87
2018-09-26T23:57:04.949Z,3.77
2018-09-26T23:59:33.249Z,4.65
